Marathon, FL

10:32 AM EDT on August 31, 2015 (GMT -0400)
APRSWXNET | | Change Station
CLOSE
Current Station
Personal Weather Station
Location: Layton, FL
Elevation: 49 ft
Nearby Weather Stations

Elev 49 ft 24.84 °N, 80.79 °W | Updated 29 minutes ago

Clear
Clear
85 °F
Feels Like 96 °F
N
15
Wind Variable Wind from NE
Gusts 19.0 mph

Today
High -- | Low -- °F
--% Chance of Precip.
Yesterday
High -- | Low -- °F
Precip. -- in
7:03 AM 7:42 PM
Waning Gibbous, 95% visible
Pressure 30.04 in
Visibility 10.0 miles
Clouds Few 2400 ft
Heat Index 96 °F
Dew Point 78 °F
Humidity 79%
Rainfall in
Snow Depth Not available.
UV 6 out of 12
Pollen 4.20 out of 12
Air Quality Not available.
Flu Activity Not available.
METAR KHST 311358Z AUTO 14009KT 10SM FEW024 30/24 A3003 RMK AO2 SLP172 T02960242
Pressure 30.04 in
Visibility 10.0 miles
Clouds Few 2400 ft
Heat Index 96 °F
Dew Point 78 °F
Humidity 79%
Rainfall in
Snow Depth Not available.
UV 6 out of 12
Pollen 4.20 out of 12
Air Quality Not available.
Flu Activity Not available.
METAR KHST 311358Z AUTO 14009KT 10SM FEW024 30/24 A3003 RMK AO2 SLP172 T02960242
Nowcast | as of 9:27 am EDT on August 31, 2015

Through 1100 am...scattered showers and isolated thunderstorms on the extreme southeastern Gulf waters north of the Lower and Middle Keys and north and south of the Dry Tortugas...including the western Florida Straits...will continue to move north northwest at 10 to 15 knots. Mariners encountering these showers will experience gusty winds 20 t0 25 knots...moderate to heavy rain with reduced visibilities...and occasional lightning strikes. Additionally...isolated showers may develop south of the lower Florida Keys and strengthening as they continue to move north affecting the islands from time to time. Motorists and visitors along the island communities will encounter light to moderate rainfall that will cause brief reduction to visibilities.

×

10-Day Weather Forecast

×

Almanac

Astronomy

Aug. 31, 2015 Rise Set
Actual Time
Civil Twilight
Nautical Twilight
Astronomical Twilight
Moon
Length of Visible Light
Length of Day
Tomorrow will be .
, % of the Moon is Illuminated

Today's Extremes

State Highs State Lows

Community

WunderPhotos

Upload Photos

1,851,248 photos uploaded!

WunderBlogs® & News

Nearby

Air Quality

  Air Quality AQ Index Pollutant
Not available.

Snow Depth

Station Depth Elevation

Earthquake Activity

City Distance Mag. Time & Date
Minimum magnitude displayed is 2.5.

Coastal Water Temperatures

Place Temperature

Stations

Nearby Weather Stations

Station Location Temp. Windchill Dew Point Humidity Wind Precip. Elev Updated Type